Nearby METAR Reports

 

KCMH - Columbus, Ohio, USA
Distance from station: SW 5mi, 8km
Updated: Sun, 26-May-2019 1:51pm EDT
Partly cloudy
Partly cloudy
 Wind from SW
Wind: SW 8 mph , 13 km/h
Temperature: 81°F , 27°C
Heat Index: 82°F , 28°C
Dew Point: 63°F , 17°C
Humidity: 54%
Barometer: 30.03 inHg , 1016.9 hPa
Clouds: Partly cloudy
Visibility: 10 miles , 16 km
Cloud details: Few Clouds 10000 ft
Few Clouds 12000 ft
Partly cloudy 25000 ft
2019/05/26 17:51 KCMH 261751Z 22007KT 10SM FEW100 FEW120 SCT250 27/17 A3003 RMK AO2 LTG DSNT S SLP163 60013 T02670172 10267 20189 58013
KOSU - Columbus/St Univ, Ohio, USA
Distance from station: W 14mi, 23km
Updated: Sun, 26-May-2019 1:53pm EDT
Mostly cloudy
Mostly cloudy
 Wind from W
Wind: W 8 mph , 13 km/h
Temperature: 81°F , 27°C
Heat Index: 83°F , 28°C
Dew Point: 64°F , 18°C
Humidity: 58%
Barometer: 30.04 inHg , 1017.3 hPa
Clouds: Mostly cloudy
Visibility: 10 miles , 16 km
Cloud details: Mostly cloudy 10000 ft
Mostly cloudy 12000 ft
2019/05/26 17:53 KOSU 261753Z 27007KT 10SM BKN100 BKN120 27/18 A3004 RMK AO2 SLP165 6//// T02670183 10267 20189 56009 $
 
KLCK - Rickenbacker Ang, Ohio, USA
Distance from station: SSW 17mi, 27km
Updated: Sun, 26-May-2019 1:55pm EDT
Clear
Clear
 Wind from WSW
Wind: WSW 6 mph , 9 km/h
Temperature: 81°F , 27°C
Heat Index: 83°F , 28°C
Dew Point: 64°F , 18°C
Humidity: 58%
Barometer: 30.02 inHg , 1016.6 hPa
Clouds: Clear
Visibility: 10 miles , 16 km
2019/05/26 17:55 KLCK 261755Z AUTO 24005KT 10SM CLR 27/18 A3002 RMK AO2 LTG DSNT E T02740183
KVTA - Newark, Ohio, USA
Distance from station: E 19mi, 30km
Updated: Sun, 26-May-2019 1:54pm EDT
Clear
Clear
 Wind from SW
Wind: SW 8 mph , 13 km/h
Temperature: 81°F , 27°C
Heat Index: 84°F , 29°C
Dew Point: 68°F , 20°C
Humidity: 66%
Barometer: 30.03 inHg , 1016.9 hPa
Clouds: Clear
Visibility: 10 miles , 16 km
2019/05/26 17:54 KVTA 261754Z AUTO 23007KT 10SM CLR 27/20 A3003 RMK AO2 SLP162 60008 T02720200 10272 20194 58012
 
KTZR - Columbus/Bolton, Ohio, USA
Distance from station: WSW 20mi, 31km
Updated: Sun, 26-May-2019 1:47pm EDT
Partly cloudy
Partly cloudy
 Wind from W
Wind: W 7 mph , 11 km/h
Temperature: 81°F , 27°C
Heat Index: 83°F , 28°C
Dew Point: 66°F , 19°C
Humidity: 62%
Barometer: 30.05 inHg , 1017.6 hPa
Clouds: Partly cloudy
Visibility: 10 miles , 16 km
Cloud details: Partly cloudy 9500 ft
2019/05/26 17:47 KTZR 261747Z 26006KT 10SM SCT095 27/19 A3005
KLHQ - Lancaster, Ohio, USA
Distance from station: SSE 22mi, 36km
Updated: Sun, 26-May-2019 1:53pm EDT
Clear
Clear
 Wind from W
Wind: W 8 mph , 13 km/h
Temperature: 82°F , 28°C
Heat Index: 85°F , 29°C
Dew Point: 68°F , 20°C
Humidity: 62%
Barometer: 30.03 inHg , 1016.9 hPa
Clouds: Clear
Visibility: 10 miles , 16 km
2019/05/26 17:53 KLHQ 261753Z AUTO 28007KT 10SM CLR 28/20 A3003 RMK AO2 LTG DSNT S AND SW SLP162 60001 T02780200 10278 20200 58016
 
KDLZ - Delaware, Ohio, USA
Distance from station: NW 23mi, 36km
Updated: Sun, 26-May-2019 1:55pm EDT
Partly cloudy
Partly cloudy
 Wind from W
Wind: W 7 mph , 11 km/h
Temperature: 79°F , 26°C
Dew Point: 63°F , 17°C
Humidity: 58%
Barometer: 30.05 inHg , 1017.6 hPa
Clouds: Partly cloudy
Visibility: 10 miles , 16 km
Cloud details: Partly cloudy 10000 ft
Partly cloudy 12000 ft
2019/05/26 17:55 KDLZ 261755Z AUTO 28006KT 10SM SCT100 SCT120 26/17 A3005 RMK AO2
K4I3 - Mt Vernon/Knox, Ohio, USA
Distance from station: NE 25mi, 40km
Updated: Sun, 26-May-2019 1:55pm EDT
Clear
Clear
 Wind from W
Wind: W 13 mph , 20 km/h
Temperature: 79°F , 26°C
Dew Point: 68°F , 20°C
Humidity: 70%
Barometer: 30.06 inHg , 1017.9 hPa
Clouds: Clear
Visibility: 10 miles , 16 km
2019/05/26 17:55 K4I3 261755Z AUTO 26011KT 10SM CLR 26/20 A3006 RMK AO2
 
KMRT - Marysville, Ohio, USA
Distance from station: WNW 30mi, 49km
Updated: Sun, 26-May-2019 1:55pm EDT
Mostly cloudy
Mostly cloudy
 Wind from WNW
Wind: WNW 8 mph , 13 km/h
Temperature: 79°F , 26°C
Dew Point: 64°F , 18°C
Humidity: 61%
Barometer: 30.05 inHg , 1017.6 hPa
Clouds: Mostly cloudy
Visibility: 10 miles , 16 km
Cloud details: Mostly cloudy 3300 ft
2019/05/26 17:55 KMRT 261755Z AUTO 29007KT 10SM BKN033 26/18 A3005 RMK AO2 T02610182 10261 20179
KMNN - Marion, Ohio, USA
Distance from station: NNW 41mi, 67km
Updated: Sun, 26-May-2019 1:53pm EDT
Mostly cloudy
Mostly cloudy
 Wind from WNW
Wind: WNW 9 mph , 15 km/h
Temperature: 81°F , 27°C
Heat Index: 83°F , 28°C
Dew Point: 64°F , 18°C
Humidity: 58%
Barometer: 30.05 inHg , 1017.6 hPa
Clouds: Mostly cloudy
Visibility: 10 miles , 16 km
Cloud details: Few Clouds 2900 ft
Partly cloudy 3700 ft
Mostly cloudy 10000 ft
2019/05/26 17:53 KMNN 261753Z AUTO 29008KT 10SM FEW029 SCT037 BKN100 27/18 A3005 RMK AO2 SLP171 6//// T02670178 10272 20183 56003
 
KZZV - Zanesville, Ohio, USA
Distance from station: E 49mi, 79km
Updated: Sun, 26-May-2019 1:53pm EDT
Haze, Clear
Haze, Clear
 Wind from SSW
Wind: SSW 6 mph , 9 km/h
Temperature: 79°F , 26°C
Dew Point: 64°F , 18°C
Humidity: 61%
Barometer: 30.04 inHg , 1017.3 hPa
Summary: Haze
Clouds: Clear
Visibility: 4 miles , 6 km
2019/05/26 17:53 KZZV 261753Z AUTO 21005KT 4SM HZ CLR 26/18 A3004 RMK AO2 SLP165 60003 T02610178 10267 20200 56015